Terminal Aerodrome Forecast
Issued by NWS Blacksburg, VA

Current Version | Previous Version | Graphics & Text | Print | Product List | Glossary On
Versions: 1 2 3 4 5 6 7 8 9 10 11 12 13 14 15 16 17 18 19 20 21 22 23 24 25 26 27 28 29 30 31 32 33 34 35 36 37 38
000
FTUS41 KRNK 142336
TAFBLF
TAF
KBLF 142336Z 1500/1524 29005KT 1SM BR OVC002
     FM150400 30004KT 1/2SM FG VV002
     FM151500 VRB03KT 4SM BR OVC004
      TEMPO 1517/1518 P6SM NSW SCT006 SCT015
     FM151800 13005KT P6SM SCT250=

USA.gov is the U.S. government's official web portal to all federal, state and local government web resources and services.